Time;durP1;ratioP1;P1;durP2;ratioP2;P2;SDS_P1;SDS_P2;PMS_P1;PMS_P2;Temp;Humidity;BMP_temperature;BMP_pressure;BME280_temperature;BME280_humidity;BME280_pressure;Samples;Min_cycle;Max_cycle;Signal;HPM_P1;HPM_P2
2022/12/12 00:02:21;;;;;;;5.03;4.53;;;1.20;99.90;;;;;;5096653;28;20271;-84
2022/12/12 00:04:47;;;;;;;4.57;4.07;;;1.20;99.90;;;;;;5096364;28;20603;-85
2022/12/12 00:07:13;;;;;;;5.33;4.33;;;1.20;99.90;;;;;;5097150;28;20181;-85
2022/12/12 00:09:39;;;;;;;4.80;4.40;;;1.20;99.90;;;;;;5097589;28;20260;-84
2022/12/12 00:12:05;;;;;;;6.23;4.20;;;1.20;99.90;;;;;;5097230;28;20170;-85
2022/12/12 00:14:31;;;;;;;5.17;4.50;;;1.10;99.90;;;;;;5095758;28;20693;-84
2022/12/12 00:16:57;;;;;;;4.63;4.23;;;1.20;99.90;;;;;;5096464;28;20179;-85
2022/12/12 00:19:23;;;;;;;5.10;4.70;;;1.20;99.90;;;;;;5096279;28;20168;-84
2022/12/12 00:21:49;;;;;;;4.80;4.17;;;1.10;99.90;;;;;;5097130;28;20348;-84
2022/12/12 00:24:15;;;;;;;7.70;4.80;;;1.20;99.90;;;;;;5096434;28;20217;-86
2022/12/12 00:26:40;;;;;;;5.13;4.40;;;1.20;99.90;;;;;;5096731;28;20172;-83
2022/12/12 00:29:06;;;;;;;5.03;4.53;;;1.20;99.90;;;;;;5095947;28;20181;-85
2022/12/12 00:31:32;;;;;;;4.97;4.43;;;1.10;99.90;;;;;;5096968;28;20198;-84
2022/12/12 00:33:58;;;;;;;5.37;4.63;;;1.10;99.90;;;;;;5095879;28;20180;-83
2022/12/12 00:36:26;;;;;;;6.07;4.50;;;1.10;99.90;;;;;;5096427;28;20235;-84
2022/12/12 00:38:53;;;;;;;5.60;4.90;;;1.10;99.90;;;;;;5097490;28;20183;-83
2022/12/12 00:41:20;;;;;;;5.73;4.47;;;1.10;99.90;;;;;;5100931;28;20203;-85
2022/12/12 00:43:46;;;;;;;5.27;4.77;;;1.10;99.90;;;;;;5102672;28;20210;-85
2022/12/12 00:46:17;;;;;;;6.33;4.50;;;1.10;99.90;;;;;;5102952;28;20184;-83
2022/12/12 00:48:44;;;;;;;4.80;4.30;;;1.00;99.90;;;;;;5102542;28;20243;-85
2022/12/12 00:51:15;;;;;;;5.33;4.83;;;0.90;99.90;;;;;;5110362;28;20197;-80
2022/12/12 00:53:41;;;;;;;6.37;4.87;;;0.90;99.90;;;;;;5110761;28;20221;-83
2022/12/12 00:56:09;;;;;;;5.73;4.53;;;0.90;99.90;;;;;;5096669;28;20183;-84
2022/12/12 00:58:36;;;;;;;4.93;4.50;;;0.90;99.90;;;;;;5095068;28;20176;-82
2022/12/12 01:01:08;;;;;;;4.53;4.13;;;0.90;99.90;;;;;;5094587;28;20227;-85
2022/12/12 01:03:35;;;;;;;7.53;4.70;;;0.90;99.90;;;;;;5094523;28;20699;-83
2022/12/12 01:06:02;;;;;;;5.27;4.40;;;0.80;99.90;;;;;;5094732;28;20172;-85
2022/12/12 01:08:28;;;;;;;5.47;4.70;;;0.80;99.90;;;;;;5094685;28;20233;-86
2022/12/12 01:10:54;;;;;;;5.20;4.70;;;0.70;99.90;;;;;;5095755;28;20173;-83
2022/12/12 01:13:21;;;;;;;5.77;5.03;;;0.70;99.90;;;;;;5096592;28;20637;-85
2022/12/12 01:15:47;;;;;;;8.30;4.73;;;0.60;99.90;;;;;;5095074;28;20177;-84
2022/12/12 01:18:13;;;;;;;7.47;4.90;;;0.60;99.90;;;;;;5095321;28;20169;-78
2022/12/12 01:20:43;;;;;;;7.37;5.00;;;0.50;99.90;;;;;;5094801;28;20715;-79
2022/12/12 01:23:09;;;;;;;5.53;4.63;;;0.50;99.90;;;;;;5094200;28;20245;-79
2022/12/12 01:25:35;;;;;;;6.80;5.30;;;0.50;99.90;;;;;;5094351;28;20502;-78
2022/12/12 01:28:05;;;;;;;5.87;4.80;;;0.50;99.90;;;;;;5094519;28;20168;-83
2022/12/12 01:30:31;;;;;;;5.27;4.60;;;0.50;99.90;;;;;;5094189;28;20177;-78
2022/12/12 01:33:00;;;;;;;6.50;4.90;;;0.50;99.90;;;;;;5093356;28;20180;-82
2022/12/12 01:35:26;;;;;;;7.77;5.23;;;0.50;99.90;;;;;;5093840;28;20177;-83
2022/12/12 01:37:53;;;;;;;4.93;4.40;;;0.50;99.90;;;;;;5101089;28;20173;-84
2022/12/12 01:40:23;;;;;;;6.87;5.33;;;0.40;99.90;;;;;;5098507;28;20187;-83
2022/12/12 01:42:49;;;;;;;5.10;4.50;;;0.40;99.90;;;;;;5096254;28;20165;-85
2022/12/12 01:46:11;;;;;;;5.50;4.70;;;0.40;99.90;;;;;;5094341;28;20217;-84
2022/12/12 01:48:57;;;;;;;5.47;4.53;;;0.40;99.90;;;;;;5094386;28;20169;-83
2022/12/12 01:51:26;;;;;;;5.10;4.17;;;0.30;99.90;;;;;;5093791;28;20176;-84
2022/12/12 01:53:57;;;;;;;6.47;4.30;;;0.30;99.90;;;;;;5092586;28;20181;-81
2022/12/12 01:56:24;;;;;;;4.93;4.40;;;0.20;99.90;;;;;;5094324;28;20165;-84
2022/12/12 01:58:52;;;;;;;5.63;4.10;;;0.20;99.90;;;;;;5098111;28;20595;-84
2022/12/12 02:01:19;;;;;;;5.33;4.83;;;0.30;99.90;;;;;;5093647;28;20562;-78
2022/12/12 02:03:47;;;;;;;6.83;4.50;;;0.30;99.90;;;;;;5092165;28;20307;-80
2022/12/12 02:06:18;;;;;;;4.40;4.00;;;0.30;99.90;;;;;;5093427;28;20177;-77
2022/12/12 02:08:45;;;;;;;5.67;4.63;;;0.20;99.90;;;;;;5093227;28;20172;-78
2022/12/12 02:11:11;;;;;;;5.00;4.33;;;0.20;99.90;;;;;;5093461;28;20201;-81
2022/12/12 02:13:37;;;;;;;7.10;4.90;;;0.10;99.90;;;;;;5091804;28;20180;-80
2022/12/12 02:16:10;;;;;;;6.30;4.70;;;0.00;99.90;;;;;;5092069;28;20242;-79
2022/12/12 02:18:54;;;;;;;5.27;4.53;;;0.10;99.90;;;;;;5092333;28;20381;-85
2022/12/12 02:21:20;;;;;;;6.77;4.83;;;0.00;99.90;;;;;;5094038;28;20167;-85
2022/12/12 02:24:04;;;;;;;5.33;4.50;;;0.10;99.90;;;;;;5099367;28;20203;-84
2022/12/12 02:26:43;;;;;;;5.70;4.80;;;0.10;99.90;;;;;;5098388;28;20688;-85
2022/12/12 02:29:35;;;;;;;4.93;4.43;;;0.00;99.90;;;;;;5093672;28;20169;-84
2022/12/12 02:32:26;;;;;;;5.30;4.77;;;0.00;99.90;;;;;;5091969;28;20321;-81
2022/12/12 02:35:10;;;;;;;5.63;4.50;;;0.10;99.90;;;;;;5093765;28;20159;-84
2022/12/12 02:37:47;;;;;;;6.03;4.70;;;0.00;99.90;;;;;;5093837;28;20221;-86
2022/12/12 02:40:19;;;;;;;5.17;4.67;;;0.00;99.90;;;;;;5094368;28;20196;-84
2022/12/12 02:42:44;;;;;;;5.97;4.80;;;0.00;99.90;;;;;;5094737;28;20164;-85
2022/12/12 02:45:16;;;;;;;5.03;4.53;;;-0.10;99.90;;;;;;5110974;28;20325;-80
2022/12/12 02:47:50;;;;;;;7.67;5.23;;;-0.10;99.90;;;;;;5098774;28;20622;-79
2022/12/12 02:50:21;;;;;;;6.23;5.43;;;0.00;99.90;;;;;;5097069;28;20164;-79
2022/12/12 02:52:47;;;;;;;6.33;5.37;;;-0.10;99.90;;;;;;5096853;28;20491;-79
2022/12/12 02:55:14;;;;;;;6.20;5.23;;;-0.10;99.90;;;;;;5096890;28;20193;-81
2022/12/12 02:57:40;;;;;;;7.60;5.20;;;-0.20;99.90;;;;;;5097139;28;20172;-78
2022/12/12 03:00:09;;;;;;;6.27;5.40;;;-0.10;99.90;;;;;;5096914;28;20164;-78
2022/12/12 03:02:48;;;;;;;5.37;4.87;;;-0.20;99.90;;;;;;5097242;28;20225;-78
2022/12/12 03:08:36;;;;;;;5.27;4.73;;;-0.20;99.90;;;;;;5098068;28;20199;-79
2022/12/12 03:11:11;;;;;;;6.83;5.50;;;-0.40;99.90;;;;;;5097584;28;20164;-78
2022/12/12 03:13:50;;;;;;;6.00;4.97;;;-0.20;99.90;;;;;;5096625;28;20627;-77
2022/12/12 03:16:43;;;;;;;6.53;5.13;;;-0.30;99.90;;;;;;5097104;28;20164;-78
2022/12/12 03:19:22;;;;;;;6.67;5.13;;;-0.20;99.90;;;;;;5097257;28;20160;-77
2022/12/12 03:22:18;;;;;;;5.50;4.77;;;-0.20;99.90;;;;;;5096915;28;20639;-80
2022/12/12 03:24:56;;;;;;;5.30;4.80;;;-0.20;99.90;;;;;;5096341;28;20211;-81
2022/12/12 03:27:46;;;;;;;6.80;5.20;;;-0.30;99.90;;;;;;5096418;28;20161;-79
2022/12/12 03:30:15;;;;;;;5.67;5.10;;;-0.10;99.90;;;;;;5096160;28;20164;-79
2022/12/12 03:32:59;;;;;;;5.83;5.07;;;-0.20;99.90;;;;;;5096216;28;20243;-77
2022/12/12 03:35:38;;;;;;;7.53;5.50;;;-0.20;99.90;;;;;;5096319;28;20160;-83
2022/12/12 03:38:12;;;;;;;6.53;5.07;;;-0.30;99.90;;;;;;5096266;28;20166;-83
2022/12/12 03:40:58;;;;;;;5.23;4.70;;;-0.30;99.90;;;;;;5096310;28;20166;-84
2022/12/12 03:43:34;;;;;;;6.37;5.20;;;-0.30;99.90;;;;;;5096113;28;20248;-81
2022/12/12 03:46:06;;;;;;;6.77;4.97;;;-0.40;99.90;;;;;;5096119;28;20168;-82
2022/12/12 03:48:42;;;;;;;5.30;4.80;;;-0.40;99.90;;;;;;5097259;28;20534;-84
2022/12/12 03:51:14;;;;;;;5.37;4.83;;;-0.40;99.90;;;;;;5095933;28;20181;-82
2022/12/12 03:53:46;;;;;;;6.33;5.47;;;-0.50;99.90;;;;;;5095924;28;20251;-81
2022/12/12 03:56:29;;;;;;;6.83;5.03;;;-0.60;99.90;;;;;;5096004;28;20206;-84
2022/12/12 03:58:59;;;;;;;6.67;5.20;;;-0.60;99.90;;;;;;5098656;28;20178;-83
2022/12/12 04:01:35;;;;;;;6.43;4.93;;;-0.70;99.90;;;;;;5095630;28;20626;-83
2022/12/12 04:04:07;;;;;;;6.43;5.77;;;-0.80;99.90;;;;;;5095949;28;20678;-83
2022/12/12 04:06:42;;;;;;;5.97;5.37;;;-1.00;99.90;;;;;;5095830;28;20573;-85
2022/12/12 04:15:14;;;;;;;7.00;5.20;;;-1.00;99.90;;;;;;5095710;28;20202;-85
2022/12/12 04:17:54;;;;;;;7.27;5.60;;;-1.10;99.90;;;;;;5095674;28;20170;-83
2022/12/12 04:23:17;;;;;;;7.13;6.13;;;-1.20;99.90;;;;;;5096933;28;20175;-85
2022/12/12 04:29:04;;;;;;;6.73;5.97;;;-1.20;99.90;;;;;;5097420;28;20170;-82
2022/12/12 04:31:37;;;;;;;7.03;5.67;;;-1.20;99.90;;;;;;5095806;28;20156;-77
2022/12/12 04:34:10;;;;;;;7.00;6.30;;;-1.10;99.90;;;;;;5098265;28;20224;-78
2022/12/12 04:36:37;;;;;;;8.67;6.23;;;-1.00;99.90;;;;;;5115865;28;20158;-80
2022/12/12 04:39:05;;;;;;;7.23;5.30;;;-1.00;99.90;;;;;;5097364;28;20209;-85
2022/12/12 04:41:34;;;;;;;7.67;5.67;;;-1.00;99.90;;;;;;5095180;28;20236;-84
2022/12/12 04:44:04;;;;;;;9.87;5.90;;;-1.00;99.90;;;;;;5094915;28;20199;-83
2022/12/12 04:46:32;;;;;;;7.10;5.63;;;-0.90;99.90;;;;;;5094878;28;20173;-84
2022/12/12 04:49:05;;;;;;;7.10;5.60;;;-1.00;99.90;;;;;;5094918;28;20200;-83
2022/12/12 04:51:40;;;;;;;7.93;6.07;;;-0.90;99.90;;;;;;5095286;28;20156;-84
2022/12/12 04:54:18;;;;;;;7.57;5.77;;;-0.90;99.90;;;;;;5095406;28;20175;-79
2022/12/12 04:56:48;;;;;;;6.53;5.13;;;-0.90;99.90;;;;;;5094669;28;20194;-82
2022/12/12 04:59:13;;;;;;;7.07;5.43;;;-0.80;99.90;;;;;;5094094;28;20175;-79
2022/12/12 05:02:17;;;;;;;7.93;5.40;;;-0.70;99.90;;;;;;5094391;28;20302;-80
2022/12/12 05:05:01;;;;;;;7.33;5.60;;;-0.80;99.90;;;;;;5094398;28;20208;-80
2022/12/12 05:07:35;;;;;;;6.77;5.63;;;-0.90;99.90;;;;;;5093849;28;20223;-79
2022/12/12 05:10:01;;;;;;;6.40;5.33;;;-0.90;99.90;;;;;;5094481;28;20204;-81
2022/12/12 05:12:27;;;;;;;7.97;5.23;;;-1.00;99.90;;;;;;5094338;28;20194;-79
2022/12/12 05:14:53;;;;;;;7.33;5.37;;;-1.00;99.90;;;;;;5094304;28;20258;-82
2022/12/12 05:17:26;;;;;;;8.37;6.10;;;-1.00;99.90;;;;;;5094240;28;20171;-83
2022/12/12 05:19:52;;;;;;;6.80;5.80;;;-1.00;99.90;;;;;;5094730;28;20157;-80
2022/12/12 05:22:17;;;;;;;7.23;5.07;;;-1.00;99.90;;;;;;5094866;28;20194;-79
2022/12/12 05:24:43;;;;;;;8.53;5.80;;;-0.90;99.90;;;;;;5093961;28;20553;-81
2022/12/12 05:27:11;;;;;;;5.83;5.20;;;-0.90;99.90;;;;;;5094094;28;20164;-86
2022/12/12 05:29:37;;;;;;;7.33;4.83;;;-1.00;99.90;;;;;;5094291;28;20187;-83
2022/12/12 05:32:03;;;;;;;6.10;4.93;;;-1.00;99.90;;;;;;5094007;28;20183;-84
2022/12/12 05:34:29;;;;;;;4.93;4.43;;;-1.20;99.90;;;;;;5095932;28;20174;-83
2022/12/12 05:36:56;;;;;;;7.53;5.33;;;-1.30;99.90;;;;;;5097734;28;20687;-80
2022/12/12 05:39:21;;;;;;;11.90;7.33;;;-1.30;99.90;;;;;;5096667;28;20179;-84
2022/12/12 05:41:47;;;;;;;9.17;6.80;;;-1.30;99.90;;;;;;5095059;28;20225;-81
2022/12/12 05:44:13;;;;;;;7.03;5.57;;;-1.20;99.90;;;;;;5094165;28;20631;-82
2022/12/12 05:46:39;;;;;;;8.73;5.83;;;-1.10;99.90;;;;;;5096317;28;20665;-83
2022/12/12 05:49:06;;;;;;;5.73;5.00;;;-1.10;99.90;;;;;;5095911;28;20269;-84
2022/12/12 05:51:32;;;;;;;5.40;4.93;;;-1.10;99.90;;;;;;5095046;28;20574;-82
2022/12/12 05:53:57;;;;;;;7.90;5.57;;;-1.00;99.90;;;;;;5093554;28;20199;-83
2022/12/12 05:56:23;;;;;;;5.83;5.20;;;-1.00;99.90;;;;;;5093435;28;20591;-82
2022/12/12 05:58:49;;;;;;;7.90;6.13;;;-1.10;99.90;;;;;;5092184;28;20189;-84
2022/12/12 06:01:15;;;;;;;7.23;5.87;;;-1.00;99.90;;;;;;5093217;28;20314;-82
2022/12/12 06:03:40;;;;;;;8.50;5.90;;;-1.10;99.90;;;;;;5093352;28;20194;-83
2022/12/12 06:06:06;;;;;;;8.93;5.83;;;-1.00;99.90;;;;;;5093490;28;20637;-85
2022/12/12 06:08:33;;;;;;;8.97;6.27;;;-1.00;99.90;;;;;;5095398;28;20178;-84
2022/12/12 06:11:02;;;;;;;8.63;5.37;;;-1.00;99.90;;;;;;5093455;28;20175;-85
2022/12/12 06:13:28;;;;;;;7.50;5.67;;;-1.10;99.90;;;;;;5093321;28;20163;-83
2022/12/12 06:15:54;;;;;;;7.93;5.50;;;-1.10;99.90;;;;;;5092088;28;20702;-84
2022/12/12 06:18:20;;;;;;;6.60;5.40;;;-1.10;99.90;;;;;;5092629;28;20621;-82
2022/12/12 06:20:46;;;;;;;8.93;5.80;;;-1.10;99.90;;;;;;5092887;28;20179;-81
2022/12/12 06:23:11;;;;;;;7.93;6.33;;;-1.10;99.90;;;;;;5095266;28;20167;-82
2022/12/12 06:25:49;;;;;;;7.90;5.97;;;-1.00;99.90;;;;;;5097116;28;20175;-80
2022/12/12 06:28:15;;;;;;;7.57;5.53;;;-1.10;99.90;;;;;;5107281;28;20154;-79
2022/12/12 06:30:40;;;;;;;7.07;5.23;;;-1.20;99.90;;;;;;5094794;28;20178;-78
2022/12/12 06:33:06;;;;;;;8.43;5.20;;;-1.20;99.90;;;;;;5093808;28;20179;-82
2022/12/12 06:35:32;;;;;;;7.03;5.53;;;-1.30;99.90;;;;;;5093233;28;20162;-83
2022/12/12 06:37:58;;;;;;;10.30;6.73;;;-1.20;99.90;;;;;;5095520;28;20195;-85
2022/12/12 06:40:24;;;;;;;13.20;6.97;;;-1.20;99.90;;;;;;5094954;28;20192;-84
2022/12/12 06:42:50;;;;;;;11.13;6.17;;;-1.20;99.90;;;;;;5093126;28;20170;-82
2022/12/12 06:45:16;;;;;;;10.70;6.87;;;-1.20;99.90;;;;;;5092029;28;20211;-84
2022/12/12 06:47:41;;;;;;;12.73;6.77;;;-1.00;99.90;;;;;;5092937;28;20196;-78
2022/12/12 06:50:07;;;;;;;10.77;6.77;;;-1.10;99.90;;;;;;5092601;28;20220;-79
2022/12/12 06:52:33;;;;;;;12.63;6.33;;;-1.10;99.90;;;;;;5093409;28;20179;-82
2022/12/12 06:54:59;;;;;;;7.80;5.40;;;-1.30;99.90;;;;;;5093151;28;20205;-82
2022/12/12 06:57:28;;;;;;;9.23;6.13;;;-1.30;99.90;;;;;;5091913;28;20187;-85
2022/12/12 06:59:57;;;;;;;9.87;5.53;;;-1.40;99.90;;;;;;5091877;28;20254;-81
2022/12/12 07:02:23;;;;;;;8.90;5.53;;;-1.30;99.90;;;;;;5092261;28;20194;-82
2022/12/12 07:04:49;;;;;;;7.27;5.67;;;-1.30;99.90;;;;;;5092874;28;20207;-83
2022/12/12 07:07:15;;;;;;;9.43;5.90;;;-1.20;99.90;;;;;;5091571;28;20171;-79
2022/12/12 07:09:41;;;;;;;7.70;5.50;;;-1.20;99.90;;;;;;5092804;28;20540;-82
2022/12/12 07:12:06;;;;;;;8.47;5.80;;;-1.20;99.90;;;;;;5093229;28;20224;-81
2022/12/12 07:14:32;;;;;;;8.47;6.33;;;-1.30;99.90;;;;;;5094081;28;20175;-84
2022/12/12 07:16:58;;;;;;;11.93;6.20;;;-1.20;99.90;;;;;;5094172;28;20541;-84
2022/12/12 07:19:25;;;;;;;11.57;7.03;;;-1.20;99.90;;;;;;5094452;28;20179;-81
2022/12/12 07:21:51;;;;;;;8.80;6.30;;;-1.20;99.90;;;;;;5098503;28;20181;-85
2022/12/12 07:24:16;;;;;;;10.03;7.07;;;-1.10;99.90;;;;;;5101443;28;20293;-83
2022/12/12 07:26:42;;;;;;;8.90;6.17;;;-1.20;99.90;;;;;;5094767;28;20177;-85
2022/12/12 07:29:08;;;;;;;8.07;6.00;;;-1.00;99.90;;;;;;5096645;28;20171;-83
2022/12/12 07:31:34;;;;;;;7.83;6.17;;;-1.00;99.90;;;;;;5098004;28;20187;-84
2022/12/12 07:34:00;;;;;;;9.67;6.50;;;-1.00;99.90;;;;;;5096713;28;20170;-84
2022/12/12 07:36:25;;;;;;;11.00;7.10;;;-1.10;99.90;;;;;;5096824;28;20174;-84
2022/12/12 07:38:51;;;;;;;13.17;7.20;;;-1.00;99.90;;;;;;5097179;28;20641;-82
2022/12/12 07:41:19;;;;;;;14.43;7.73;;;-1.00;99.90;;;;;;5096982;28;20598;-82
2022/12/12 07:43:46;;;;;;;11.43;7.47;;;-0.90;99.90;;;;;;5097093;28;20202;-85
2022/12/12 07:46:20;;;;;;;11.63;8.70;;;-0.90;99.90;;;;;;5096659;28;20270;-84
2022/12/12 07:48:46;;;;;;;11.80;7.97;;;-0.90;99.90;;;;;;5095011;28;20615;-85
2022/12/12 07:51:13;;;;;;;11.13;7.10;;;-0.90;99.90;;;;;;5096203;28;20670;-82
2022/12/12 07:53:39;;;;;;;7.70;5.97;;;-0.80;99.90;;;;;;5096303;28;20175;-84
2022/12/12 07:56:06;;;;;;;9.93;6.60;;;-0.80;99.90;;;;;;5096338;28;20186;-84
2022/12/12 07:58:32;;;;;;;8.20;6.30;;;-0.80;99.90;;;;;;5096284;28;20169;-82
2022/12/12 08:00:58;;;;;;;12.13;7.03;;;-0.80;99.90;;;;;;5094695;28;20234;-85
2022/12/12 08:03:24;;;;;;;9.87;7.40;;;-0.80;99.90;;;;;;5096077;28;20163;-81
2022/12/12 08:05:50;;;;;;;9.40;6.27;;;-0.70;99.90;;;;;;5096755;28;20185;-83
2022/12/12 08:08:16;;;;;;;10.27;6.77;;;-0.70;99.90;;;;;;5095693;28;20641;-79
2022/12/12 08:10:42;;;;;;;9.33;6.50;;;-0.70;99.90;;;;;;5095322;28;20186;-77
2022/12/12 08:13:08;;;;;;;10.90;7.10;;;-0.70;99.90;;;;;;5095039;28;20166;-81
2022/12/12 08:15:34;;;;;;;9.70;6.90;;;-0.70;99.90;;;;;;5094787;28;20179;-77
2022/12/12 08:18:01;;;;;;;12.53;7.00;;;-0.60;99.90;;;;;;5098912;28;20164;-78
2022/12/12 08:20:26;;;;;;;9.97;6.70;;;-0.60;99.90;;;;;;5110925;28;20187;-79
2022/12/12 08:22:52;;;;;;;13.23;7.50;;;-0.60;99.90;;;;;;5101967;28;20232;-83
2022/12/12 08:25:18;;;;;;;9.67;7.27;;;-0.50;99.90;;;;;;5094652;28;20208;-82
2022/12/12 08:27:44;;;;;;;10.83;6.60;;;-0.60;99.90;;;;;;5095562;28;20164;-78
2022/12/12 08:30:10;;;;;;;11.77;6.17;;;-0.60;99.90;;;;;;5095125;28;20636;-76
2022/12/12 08:32:35;;;;;;;8.67;6.27;;;-0.60;99.90;;;;;;5095050;28;20169;-76
2022/12/12 08:35:02;;;;;;;10.00;6.67;;;-0.50;99.90;;;;;;5095044;28;20221;-81
2022/12/12 08:37:28;;;;;;;8.17;6.13;;;-0.50;99.90;;;;;;5095283;28;20267;-80
2022/12/12 08:39:54;;;;;;;9.50;6.30;;;-0.50;99.90;;;;;;5094926;28;20176;-78
2022/12/12 08:42:20;;;;;;;6.50;5.90;;;-0.40;99.90;;;;;;5094434;28;20169;-77
2022/12/12 08:44:48;;;;;;;8.00;6.07;;;-0.30;99.90;;;;;;5095572;28;20207;-79
2022/12/12 08:47:14;;;;;;;8.03;6.33;;;-0.30;99.90;;;;;;5093559;28;20719;-78
2022/12/12 08:49:39;;;;;;;6.27;5.13;;;-0.30;99.90;;;;;;5094689;28;20259;-80
2022/12/12 08:52:08;;;;;;;6.80;4.80;;;-0.40;99.90;;;;;;5094774;28;20164;-82
2022/12/12 08:54:35;;;;;;;7.53;5.50;;;-0.30;99.90;;;;;;5095058;28;20168;-83
2022/12/12 08:57:01;;;;;;;6.57;5.17;;;-0.30;99.90;;;;;;5097414;28;20174;-79
2022/12/12 08:59:27;;;;;;;6.50;4.90;;;-0.30;99.90;;;;;;5095132;28;20193;-79
2022/12/12 09:01:53;;;;;;;8.90;5.27;;;-0.30;99.90;;;;;;5094641;28;20240;-80
2022/12/12 09:04:19;;;;;;;6.30;5.27;;;-0.20;99.90;;;;;;5094353;28;20217;-80
2022/12/12 09:06:44;;;;;;;6.17;5.50;;;-0.10;99.90;;;;;;5094610;28;20180;-78
2022/12/12 09:09:10;;;;;;;12.13;5.87;;;-0.10;99.90;;;;;;5095060;28;20174;-78
2022/12/12 09:11:36;;;;;;;7.10;5.80;;;0.00;99.90;;;;;;5097661;28;20581;-81
2022/12/12 09:14:02;;;;;;;7.90;6.37;;;0.00;99.90;;;;;;5094770;28;20175;-77
2022/12/12 09:16:28;;;;;;;7.77;5.90;;;0.10;99.90;;;;;;5094651;28;20664;-78
2022/12/12 09:18:55;;;;;;;6.93;5.80;;;0.10;99.90;;;;;;5094451;28;20267;-79
2022/12/12 09:21:21;;;;;;;5.97;5.20;;;0.10;99.90;;;;;;5094239;28;20165;-82
2022/12/12 09:23:48;;;;;;;7.10;5.50;;;0.10;99.90;;;;;;5094402;28;20627;-83
2022/12/12 09:26:14;;;;;;;10.90;5.57;;;0.20;99.90;;;;;;5094700;28;20209;-84
2022/12/12 09:28:40;;;;;;;6.37;5.00;;;0.20;99.90;;;;;;5095054;28;20250;-81
2022/12/12 09:31:07;;;;;;;8.53;5.53;;;0.20;99.90;;;;;;5096385;28;20201;-83
2022/12/12 09:33:34;;;;;;;6.70;5.47;;;0.30;99.90;;;;;;5094230;28;20257;-84
2022/12/12 09:36:02;;;;;;;7.20;5.43;;;0.30;99.90;;;;;;5093990;28;20177;-83
2022/12/12 09:38:28;;;;;;;8.83;5.53;;;0.30;99.90;;;;;;5094197;28;20183;-81
2022/12/12 09:41:10;;;;;;;6.60;5.67;;;0.20;99.90;;;;;;5094723;28;20267;-82
2022/12/12 09:43:50;;;;;;;8.87;5.23;;;0.20;99.90;;;;;;5096391;28;20211;-83
2022/12/12 09:47:04;;;;;;;7.13;4.90;;;0.30;99.90;;;;;;5094058;28;20185;-83
2022/12/12 09:49:33;;;;;;;7.10;5.40;;;0.30;99.90;;;;;;5080502;28;20918;-80
2022/12/12 09:52:00;;;;;;;7.50;6.10;;;0.30;99.90;;;;;;5093304;28;20678;-79
2022/12/12 09:54:27;;;;;;;6.50;5.37;;;0.40;99.90;;;;;;5093517;28;20172;-78
2022/12/12 09:57:23;;;;;;;9.33;4.60;;;0.50;99.90;;;;;;5094390;28;20184;-80
2022/12/12 10:00:10;;;;;;;5.13;4.60;;;0.50;99.90;;;;;;5084894;28;20256;-82
2022/12/12 10:02:42;;;;;;;9.53;4.97;;;0.50;99.90;;;;;;5094148;28;20182;-80
2022/12/12 10:05:45;;;;;;;5.87;4.13;;;0.50;99.90;;;;;;5093897;28;20287;-80
2022/12/12 10:08:44;;;;;;;6.53;4.10;;;0.50;99.90;;;;;;5094516;28;20180;-80
2022/12/12 10:14:01;;;;;;;6.83;4.73;;;0.70;99.90;;;;;;5094629;28;20275;-77
2022/12/12 10:16:30;;;;;;;4.67;3.83;;;0.80;99.90;;;;;;5093333;28;20708;-80
2022/12/12 10:19:04;;;;;;;5.60;4.10;;;0.80;99.90;;;;;;5093079;28;20200;-80
2022/12/12 10:21:32;;;;;;;5.23;3.90;;;0.80;99.90;;;;;;5091854;28;20176;-78
2022/12/12 10:24:16;;;;;;;4.67;4.17;;;0.90;99.90;;;;;;5092859;28;20251;-77
2022/12/12 10:26:42;;;;;;;4.30;3.77;;;0.90;99.90;;;;;;5091682;28;20166;-76
2022/12/12 10:29:12;;;;;;;6.30;4.20;;;0.90;99.90;;;;;;5091734;28;20186;-79
2022/12/12 10:32:13;;;;;;;7.23;4.10;;;0.90;99.90;;;;;;5093068;28;20170;-80
2022/12/12 10:35:03;;;;;;;7.53;4.33;;;0.90;99.90;;;;;;5092993;28;20173;-80
2022/12/12 10:37:52;;;;;;;5.10;4.57;;;0.90;99.90;;;;;;5092860;28;20164;-84
2022/12/12 10:40:46;;;;;;;5.53;3.80;;;1.00;99.90;;;;;;5092991;28;20647;-79
2022/12/12 10:43:29;;;;;;;5.57;3.93;;;1.00;99.90;;;;;;5091425;28;20216;-79
2022/12/12 10:46:17;;;;;;;6.07;4.43;;;1.00;99.90;;;;;;5092889;28;20186;-78
2022/12/12 10:48:44;;;;;;;4.10;3.73;;;1.00;99.90;;;;;;5092777;28;20517;-79
2022/12/12 10:51:14;;;;;;;3.57;3.23;;;0.90;99.90;;;;;;5092745;28;20694;-82
2022/12/12 10:53:40;;;;;;;5.37;3.83;;;1.00;99.90;;;;;;5092705;28;20170;-78
2022/12/12 10:56:27;;;;;;;4.03;3.60;;;1.00;99.90;;;;;;5092779;28;20266;-79
2022/12/12 10:58:53;;;;;;;3.63;3.27;;;1.00;99.90;;;;;;5094674;28;20166;-80
2022/12/12 11:01:55;;;;;;;4.27;3.67;;;1.10;99.90;;;;;;5093587;28;20232;-79
2022/12/12 11:04:21;;;;;;;4.10;3.60;;;1.20;99.90;;;;;;5094541;28;20202;-82
2022/12/12 11:06:52;;;;;;;3.50;3.20;;;1.20;99.90;;;;;;5099316;28;20277;-84
2022/12/12 11:09:21;;;;;;;4.10;3.40;;;1.30;99.90;;;;;;5096988;28;20161;-84
2022/12/12 11:12:14;;;;;;;4.83;3.27;;;1.30;99.90;;;;;;5096844;28;20196;-83
2022/12/12 11:14:49;;;;;;;4.60;3.10;;;1.40;99.90;;;;;;5088574;28;20182;-83
2022/12/12 11:17:22;;;;;;;3.00;2.80;;;1.40;99.90;;;;;;5096759;28;20177;-83
2022/12/12 11:19:47;;;;;;;5.83;3.87;;;1.40;99.30;;;;;;5098767;28;20173;-84
2022/12/12 11:22:14;;;;;;;3.47;3.17;;;1.40;99.00;;;;;;5097473;28;20264;-82
2022/12/12 11:24:44;;;;;;;2.93;2.73;;;1.30;98.70;;;;;;5096583;28;20516;-82
2022/12/12 11:27:18;;;;;;;3.50;2.30;;;1.30;98.90;;;;;;5096986;28;20474;-83
2022/12/12 11:29:57;;;;;;;2.53;2.40;;;1.40;98.70;;;;;;5096902;28;20169;-78
2022/12/12 11:32:38;;;;;;;4.63;3.40;;;1.40;99.00;;;;;;5096433;28;20167;-80
2022/12/12 11:35:20;;;;;;;2.97;2.40;;;1.50;98.30;;;;;;5096554;28;20191;-83
2022/12/12 11:37:51;;;;;;;3.60;2.67;;;1.40;97.00;;;;;;5099822;28;20174;-79
2022/12/12 11:40:26;;;;;;;2.53;2.33;;;1.40;97.00;;;;;;5080003;28;20176;-79
2022/12/12 11:43:25;;;;;;;2.80;2.30;;;1.50;97.40;;;;;;5099091;28;20203;-79
2022/12/12 11:46:07;;;;;;;2.70;2.50;;;1.60;98.00;;;;;;5095983;28;20192;-78
2022/12/12 11:48:35;;;;;;;2.67;2.20;;;1.60;97.00;;;;;;5096186;28;20206;-77
2022/12/12 11:51:01;;;;;;;2.33;2.20;;;1.50;96.20;;;;;;5095940;28;20177;-79
2022/12/12 11:53:27;;;;;;;2.90;2.60;;;1.60;96.50;;;;;;5096298;28;20177;-77
2022/12/12 11:56:11;;;;;;;2.40;2.20;;;1.70;96.60;;;;;;5095918;28;20687;-78
2022/12/12 11:59:09;;;;;;;2.67;2.47;;;1.60;95.60;;;;;;5094895;28;20166;-79
2022/12/12 12:02:15;;;;;;;2.30;2.20;;;1.50;96.70;;;;;;5084789;28;20224;-80
2022/12/12 12:05:18;;;;;;;2.03;1.93;;;1.50;96.30;;;;;;5115369;28;20199;-77
2022/12/12 12:08:14;;;;;;;2.40;2.20;;;1.50;95.50;;;;;;5096814;28;20175;-79
2022/12/12 12:11:04;;;;;;;2.30;2.20;;;1.60;95.10;;;;;;5095658;28;20159;-79
2022/12/12 12:13:49;;;;;;;2.70;2.00;;;1.60;95.90;;;;;;5095178;28;20583;-78
2022/12/12 12:16:34;;;;;;;2.20;2.00;;;1.70;96.60;;;;;;5092805;28;20651;-79
2022/12/12 12:19:32;;;;;;;2.17;1.97;;;1.70;96.80;;;;;;5095318;28;20237;-79
2022/12/12 12:22:13;;;;;;;2.90;2.57;;;1.70;97.10;;;;;;5095454;28;20174;-81
2022/12/12 12:24:50;;;;;;;2.87;2.50;;;1.70;97.20;;;;;;5095263;28;20333;-83
2022/12/12 12:27:36;;;;;;;2.13;2.03;;;1.70;96.20;;;;;;5094038;28;20176;-84
2022/12/12 12:30:02;;;;;;;2.47;2.30;;;1.60;96.10;;;;;;5093749;28;20170;-79
2022/12/12 12:32:41;;;;;;;2.27;2.17;;;1.60;96.60;;;;;;5095059;28;20307;-81
2022/12/12 12:35:17;;;;;;;2.00;1.90;;;1.70;98.70;;;;;;5095344;28;20241;-82
2022/12/12 12:38:25;;;;;;;2.60;2.40;;;1.80;99.00;;;;;;5098802;28;20210;-80
2022/12/12 12:41:09;;;;;;;2.50;2.33;;;1.90;96.80;;;;;;5091040;28;20190;-83
2022/12/12 12:43:41;;;;;;;1.90;1.80;;;1.90;96.40;;;;;;5096315;28;20170;-80
2022/12/12 12:46:25;;;;;;;3.17;2.00;;;1.80;95.10;;;;;;5095982;28;20218;-81
2022/12/12 12:48:55;;;;;;;2.07;1.97;;;1.80;96.30;;;;;;5096355;28;20638;-82
2022/12/12 12:51:24;;;;;;;2.97;2.30;;;2.00;97.10;;;;;;5095125;28;20176;-83
2022/12/12 12:54:04;;;;;;;2.43;2.23;;;2.10;96.10;;;;;;5094924;28;20219;-84
2022/12/12 12:56:50;;;;;;;1.90;1.80;;;1.90;96.30;;;;;;5099879;28;20163;-83
2022/12/12 12:59:23;;;;;;;2.27;2.07;;;1.90;95.70;;;;;;5095105;28;20194;-84
2022/12/12 13:01:51;;;;;;;1.90;1.80;;;1.80;96.40;;;;;;5092982;28;20232;-82
2022/12/12 13:04:25;;;;;;;2.27;2.07;;;1.80;97.00;;;;;;5094628;28;20614;-81
2022/12/12 13:07:11;;;;;;;2.50;2.07;;;1.70;95.20;;;;;;5093359;28;20601;-83
2022/12/12 13:09:49;;;;;;;2.20;2.10;;;1.80;96.30;;;;;;5094523;28;20160;-82
2022/12/12 13:12:33;;;;;;;2.70;1.83;;;1.70;94.50;;;;;;5094557;28;20252;-82
2022/12/12 13:15:23;;;;;;;2.43;2.20;;;1.80;94.00;;;;;;5094528;28;20176;-80
2022/12/12 13:18:03;;;;;;;2.17;2.00;;;1.90;95.90;;;;;;5094584;28;20622;-84
2022/12/12 13:20:38;;;;;;;2.23;2.07;;;2.00;95.80;;;;;;5095707;28;20568;-82
2022/12/12 13:23:25;;;;;;;4.00;2.47;;;1.90;95.70;;;;;;5095045;28;20162;-82
2022/12/12 13:25:54;;;;;;;4.47;2.60;;;2.00;95.30;;;;;;5094397;28;20202;-81
2022/12/12 13:28:28;;;;;;;2.13;2.03;;;2.00;93.90;;;;;;5093701;28;20180;-81
2022/12/12 13:31:02;;;;;;;1.40;1.40;;;1.90;93.40;;;;;;5094068;28;20288;-83
2022/12/12 13:33:38;;;;;;;1.60;1.50;;;1.90;90.70;;;;;;5094677;28;20205;-82
2022/12/12 13:36:32;;;;;;;3.33;1.70;;;1.90;89.60;;;;;;5094737;28;20166;-77